Time;durP1;ratioP1;P1;durP2;ratioP2;P2;SDS_P1;SDS_P2;PMS_P1;PMS_P2;Temp;Humidity;BMP_temperature;BMP_pressure;BME280_temperature;BME280_humidity;BME280_pressure;Samples;Min_cycle;Max_cycle;Signal;HPM_P1;HPM_P2
2021/03/24 00:01:22;;;;;;;17.60;11.82;;;2.20;99.90;;;;;;5115239;28;20211;-69
2021/03/24 00:03:49;;;;;;;16.33;11.68;;;2.20;99.90;;;;;;5114923;28;20228;-68
2021/03/24 00:06:18;;;;;;;20.05;10.75;;;2.20;99.90;;;;;;5114602;28;20236;-68
2021/03/24 00:08:45;;;;;;;22.67;12.20;;;2.20;99.90;;;;;;5114361;28;20186;-69
2021/03/24 00:11:13;;;;;;;22.15;11.15;;;2.20;99.90;;;;;;5114681;28;20189;-69
2021/03/24 00:13:40;;;;;;;24.35;12.40;;;2.10;99.90;;;;;;5115747;28;20198;-69
2021/03/24 00:16:07;;;;;;;19.17;12.68;;;2.10;99.90;;;;;;5115218;28;20198;-69
2021/03/24 00:18:34;;;;;;;22.45;13.10;;;2.00;99.90;;;;;;5114882;28;20203;-69
2021/03/24 00:21:04;;;;;;;23.27;13.57;;;2.00;99.90;;;;;;5114668;28;20660;-69
2021/03/24 00:23:30;;;;;;;21.98;13.90;;;2.00;99.90;;;;;;5114545;28;20561;-68
2021/03/24 00:25:58;;;;;;;26.38;14.95;;;1.90;99.90;;;;;;5115416;28;20224;-69
2021/03/24 00:28:24;;;;;;;26.15;14.90;;;2.00;99.90;;;;;;5115452;28;20247;-68
2021/03/24 00:30:51;;;;;;;21.92;15.13;;;2.00;99.90;;;;;;5115688;28;20225;-69
2021/03/24 00:33:23;;;;;;;23.65;13.38;;;1.90;99.90;;;;;;5115397;28;20221;-69
2021/03/24 00:35:57;;;;;;;25.35;14.13;;;1.90;99.90;;;;;;5115416;28;20174;-68
2021/03/24 00:38:25;;;;;;;23.58;14.88;;;1.90;99.90;;;;;;5114666;28;20201;-69
2021/03/24 00:40:56;;;;;;;22.30;12.93;;;1.80;99.90;;;;;;5115112;28;20186;-68
2021/03/24 00:43:24;;;;;;;21.10;13.07;;;1.80;99.90;;;;;;5113790;28;20207;-69
2021/03/24 00:45:51;;;;;;;20.67;12.73;;;1.80;99.90;;;;;;5114480;28;20213;-68
2021/03/24 00:48:31;;;;;;;20.92;13.90;;;1.80;99.90;;;;;;5115679;28;20204;-69
2021/03/24 00:50:58;;;;;;;22.08;12.90;;;1.70;99.90;;;;;;5114877;28;20229;-69
2021/03/24 00:53:25;;;;;;;23.02;14.40;;;1.70;99.90;;;;;;5114314;28;20214;-68
2021/03/24 00:55:52;;;;;;;21.30;12.70;;;1.60;99.90;;;;;;5114638;28;20198;-69
2021/03/24 00:58:19;;;;;;;23.55;13.85;;;1.70;99.90;;;;;;5113951;28;20198;-68
2021/03/24 01:00:48;;;;;;;19.75;12.68;;;1.70;99.90;;;;;;5114178;28;20187;-68
2021/03/24 01:03:16;;;;;;;22.33;12.68;;;1.80;99.90;;;;;;5117887;28;20270;-68
2021/03/24 01:05:45;;;;;;;18.50;11.93;;;1.50;99.90;;;;;;5117833;28;20712;-68
2021/03/24 01:08:17;;;;;;;17.05;11.52;;;1.20;99.90;;;;;;5116652;28;20186;-68
2021/03/24 01:10:44;;;;;;;21.05;13.35;;;0.90;99.90;;;;;;5117328;28;20179;-68
2021/03/24 01:13:13;;;;;;;19.95;12.30;;;0.90;99.90;;;;;;5117184;28;20190;-68
2021/03/24 01:15:44;;;;;;;22.17;12.75;;;0.80;99.90;;;;;;5117444;27;20179;-68
2021/03/24 01:18:11;;;;;;;20.58;12.85;;;0.70;99.90;;;;;;5117205;28;20664;-68
2021/03/24 01:20:39;;;;;;;20.45;12.38;;;0.70;99.90;;;;;;5117372;28;20194;-68
2021/03/24 01:23:06;;;;;;;23.48;12.45;;;0.70;99.90;;;;;;5117466;28;20229;-68
2021/03/24 01:25:35;;;;;;;19.92;12.68;;;0.60;99.90;;;;;;5117178;28;20692;-68
2021/03/24 01:28:04;;;;;;;24.60;13.07;;;0.60;99.90;;;;;;5117424;28;20207;-68
2021/03/24 01:30:32;;;;;;;19.67;13.90;;;0.60;99.90;;;;;;5117516;28;20213;-68
2021/03/24 01:32:58;;;;;;;25.98;15.35;;;0.50;99.90;;;;;;5117545;27;20191;-68
2021/03/24 01:35:26;;;;;;;26.05;14.00;;;0.60;99.90;;;;;;5116069;28;20228;-68
2021/03/24 01:37:52;;;;;;;21.98;13.82;;;0.60;99.90;;;;;;5117281;27;20198;-68
2021/03/24 01:40:32;;;;;;;23.20;13.20;;;0.60;99.90;;;;;;5117021;27;20212;-68
2021/03/24 01:43:02;;;;;;;19.90;13.00;;;0.60;99.90;;;;;;5117788;28;20175;-68
2021/03/24 01:45:28;;;;;;;19.38;12.35;;;0.50;99.90;;;;;;5116801;28;20211;-68
2021/03/24 01:47:57;;;;;;;20.38;12.68;;;0.60;99.90;;;;;;5116915;28;20190;-68
2021/03/24 01:50:37;;;;;;;27.83;13.30;;;0.60;99.90;;;;;;5116807;28;20230;-68
2021/03/24 01:53:03;;;;;;;24.63;14.13;;;0.60;99.90;;;;;;5116659;28;20641;-68
2021/03/24 01:55:30;;;;;;;23.33;12.18;;;0.60;99.90;;;;;;5116876;28;20194;-68
2021/03/24 01:58:04;;;;;;;20.75;13.45;;;0.80;99.90;;;;;;5115584;28;20190;-68
2021/03/24 02:00:35;;;;;;;21.52;12.32;;;0.80;99.90;;;;;;5116565;28;20642;-68
2021/03/24 02:03:03;;;;;;;21.70;13.32;;;0.90;99.90;;;;;;5116575;28;20182;-68
2021/03/24 02:05:29;;;;;;;23.40;14.32;;;0.90;99.90;;;;;;5116396;28;20233;-68
2021/03/24 02:08:12;;;;;;;18.52;12.80;;;0.80;99.90;;;;;;5116781;28;20195;-68
2021/03/24 02:10:49;;;;;;;21.42;12.07;;;0.70;99.90;;;;;;5115656;28;20202;-68
2021/03/24 02:13:38;;;;;;;21.25;13.48;;;0.60;99.90;;;;;;5116621;27;20253;-68
2021/03/24 02:16:19;;;;;;;19.15;11.32;;;0.50;99.90;;;;;;5111141;28;20214;-68
2021/03/24 02:18:47;;;;;;;22.02;12.80;;;0.60;99.90;;;;;;5116659;28;20202;-68
2021/03/24 02:21:21;;;;;;;23.92;12.25;;;0.60;99.90;;;;;;5115942;28;20224;-68
2021/03/24 02:24:19;;;;;;;21.23;11.38;;;0.60;99.90;;;;;;5115948;28;20209;-68
2021/03/24 02:27:09;;;;;;;20.27;11.88;;;0.70;99.90;;;;;;5116161;28;20294;-68
2021/03/24 02:29:39;;;;;;;22.40;12.48;;;0.80;99.90;;;;;;5116564;28;20167;-69
2021/03/24 02:32:12;;;;;;;18.55;10.90;;;0.70;99.90;;;;;;5116320;28;20570;-69
2021/03/24 02:34:40;;;;;;;21.92;11.60;;;0.70;99.90;;;;;;5115049;28;20213;-68
2021/03/24 02:37:10;;;;;;;20.95;12.52;;;0.60;99.90;;;;;;5115791;28;20202;-68
2021/03/24 02:39:39;;;;;;;16.52;11.60;;;0.60;99.90;;;;;;5116018;28;20194;-68
2021/03/24 02:42:07;;;;;;;25.23;13.55;;;0.60;99.90;;;;;;5115582;27;20194;-68
2021/03/24 02:44:35;;;;;;;25.95;13.38;;;0.50;99.90;;;;;;5114687;28;20540;-68
2021/03/24 02:47:05;;;;;;;18.80;13.15;;;0.60;99.90;;;;;;5115864;28;20216;-68
2021/03/24 02:49:34;;;;;;;17.40;11.90;;;0.50;99.90;;;;;;5115519;28;20167;-68
2021/03/24 02:52:02;;;;;;;21.50;12.25;;;0.50;99.90;;;;;;5115855;28;20171;-68
2021/03/24 02:54:32;;;;;;;18.05;12.40;;;0.50;99.90;;;;;;5115720;27;20207;-68
2021/03/24 02:57:01;;;;;;;19.02;12.68;;;0.50;99.90;;;;;;5116288;28;20205;-67
2021/03/24 02:59:28;;;;;;;19.73;12.73;;;0.50;99.90;;;;;;5115354;28;20195;-68
2021/03/24 03:02:15;;;;;;;23.65;13.88;;;0.50;99.90;;;;;;5114994;28;20201;-68
2021/03/24 03:04:52;;;;;;;22.05;13.18;;;0.40;99.90;;;;;;5114667;28;20281;-68
2021/03/24 03:07:30;;;;;;;21.75;13.05;;;0.20;99.90;;;;;;5114913;28;20217;-68
2021/03/24 03:10:23;;;;;;;20.77;13.35;;;0.20;99.90;;;;;;5100320;28;20183;-68
2021/03/24 03:13:05;;;;;;;18.70;12.20;;;0.20;99.90;;;;;;5114555;28;20187;-68
2021/03/24 03:15:55;;;;;;;25.67;14.60;;;0.30;99.90;;;;;;5101724;28;20194;-68
2021/03/24 03:18:27;;;;;;;20.33;12.25;;;0.20;99.90;;;;;;5115315;28;20175;-68
2021/03/24 03:20:58;;;;;;;24.23;13.90;;;0.10;99.90;;;;;;5115303;28;20197;-68
2021/03/24 03:23:27;;;;;;;24.55;13.25;;;0.10;99.90;;;;;;5114340;27;20179;-67
2021/03/24 03:26:08;;;;;;;21.00;14.43;;;0.20;99.90;;;;;;5114896;28;20199;-67
2021/03/24 03:28:41;;;;;;;21.75;13.20;;;0.20;99.90;;;;;;5115042;28;20248;-68
2021/03/24 03:31:14;;;;;;;20.80;14.13;;;0.20;99.90;;;;;;5115391;28;20692;-67
2021/03/24 03:33:47;;;;;;;21.23;14.25;;;0.20;99.90;;;;;;5115011;28;20182;-67
2021/03/24 03:36:14;;;;;;;21.95;13.18;;;0.20;99.90;;;;;;5114610;28;20207;-67
2021/03/24 03:38:44;;;;;;;27.08;14.68;;;0.20;99.90;;;;;;5114873;28;20202;-68
2021/03/24 03:41:14;;;;;;;24.88;14.95;;;0.20;99.90;;;;;;5114832;28;20688;-67
2021/03/24 03:43:43;;;;;;;20.38;13.35;;;0.30;99.90;;;;;;5114887;28;20658;-67
2021/03/24 03:46:14;;;;;;;24.50;12.77;;;0.10;99.90;;;;;;5114745;28;20218;-67
2021/03/24 03:48:46;;;;;;;18.73;12.48;;;0.10;99.90;;;;;;5114803;28;20175;-68
2021/03/24 03:51:28;;;;;;;19.55;12.98;;;0.10;99.90;;;;;;5114728;28;20222;-67
2021/03/24 03:54:02;;;;;;;24.38;12.48;;;0.10;99.90;;;;;;5113601;28;20175;-68
2021/03/24 03:56:34;;;;;;;23.02;12.60;;;0.10;99.90;;;;;;5114884;28;20543;-67
2021/03/24 03:59:14;;;;;;;23.00;13.65;;;0.10;99.90;;;;;;5114377;28;20285;-67
2021/03/24 04:01:50;;;;;;;24.73;13.48;;;0.20;99.90;;;;;;5114417;28;20204;-67
2021/03/24 04:04:40;;;;;;;18.38;12.52;;;0.20;99.90;;;;;;5112619;28;20202;-67
2021/03/24 04:07:32;;;;;;;25.83;13.88;;;0.10;99.90;;;;;;5114227;28;20229;-67
2021/03/24 04:10:01;;;;;;;19.55;12.48;;;-0.10;99.90;;;;;;5112832;28;20205;-67
2021/03/24 04:12:29;;;;;;;23.15;12.50;;;0.00;99.90;;;;;;5114169;28;20270;-68
2021/03/24 04:14:56;;;;;;;22.45;12.77;;;0.00;99.90;;;;;;5114598;28;20565;-68
2021/03/24 04:17:27;;;;;;;23.00;13.73;;;0.00;99.90;;;;;;5114077;28;20198;-68
2021/03/24 04:19:58;;;;;;;21.15;13.50;;;-0.10;99.90;;;;;;5114570;28;20174;-68
2021/03/24 04:22:29;;;;;;;20.38;12.60;;;-0.10;99.90;;;;;;5114637;28;20211;-68
2021/03/24 04:25:00;;;;;;;20.40;12.60;;;-0.10;99.90;;;;;;5114698;28;20606;-68
2021/03/24 04:27:31;;;;;;;21.15;12.82;;;0.00;99.90;;;;;;5114401;28;20214;-69
2021/03/24 04:30:05;;;;;;;21.60;14.18;;;-0.10;99.90;;;;;;5114616;28;20228;-68
2021/03/24 04:32:33;;;;;;;25.45;13.88;;;0.00;99.90;;;;;;5114646;28;20182;-68
2021/03/24 04:34:59;;;;;;;25.48;13.73;;;0.00;99.90;;;;;;5115266;28;20183;-68
2021/03/24 04:37:31;;;;;;;20.15;13.45;;;0.00;99.90;;;;;;5119665;28;20212;-68
2021/03/24 04:40:06;;;;;;;23.13;13.95;;;0.00;99.90;;;;;;5118436;28;20198;-68
2021/03/24 04:42:42;;;;;;;25.48;14.02;;;0.10;99.90;;;;;;5118804;28;20183;-68
2021/03/24 04:45:43;;;;;;;25.55;12.93;;;-0.10;99.90;;;;;;5118426;28;20179;-68
2021/03/24 04:48:30;;;;;;;20.60;13.10;;;-0.30;99.90;;;;;;5118251;28;20222;-68
2021/03/24 04:51:04;;;;;;;24.15;13.63;;;-0.20;99.90;;;;;;5117817;28;20317;-68
2021/03/24 04:53:36;;;;;;;27.13;13.25;;;-0.10;99.90;;;;;;5118002;27;20209;-68
2021/03/24 04:56:04;;;;;;;25.45;13.15;;;-0.10;99.90;;;;;;5118367;28;20644;-68
2021/03/24 04:58:36;;;;;;;18.80;12.55;;;-0.10;99.90;;;;;;5118459;28;20668;-68
2021/03/24 05:01:28;;;;;;;19.40;12.68;;;-0.10;99.90;;;;;;5117994;28;20206;-68
2021/03/24 05:03:59;;;;;;;31.67;15.40;;;-0.20;99.90;;;;;;5117836;28;20206;-68
2021/03/24 05:06:39;;;;;;;25.38;13.27;;;-0.30;99.90;;;;;;5118136;28;20661;-68
2021/03/24 05:09:08;;;;;;;21.58;11.90;;;-0.30;99.90;;;;;;5117936;28;20659;-68
2021/03/24 05:11:47;;;;;;;24.73;13.32;;;-0.30;99.90;;;;;;5116734;28;20198;-68
2021/03/24 05:14:33;;;;;;;22.05;13.57;;;-0.30;99.90;;;;;;5117885;28;20634;-68
2021/03/24 05:17:22;;;;;;;24.30;13.38;;;-0.30;99.90;;;;;;5117669;28;20175;-68
2021/03/24 05:19:56;;;;;;;20.23;12.30;;;-0.20;99.90;;;;;;5118151;28;20175;-69
2021/03/24 05:22:43;;;;;;;22.27;13.35;;;-0.20;99.90;;;;;;5117921;28;20181;-68
2021/03/24 05:25:22;;;;;;;18.77;12.10;;;-0.10;99.90;;;;;;5117987;27;20202;-69
2021/03/24 05:27:59;;;;;;;28.02;14.27;;;-0.10;99.90;;;;;;5102965;27;20237;-68
2021/03/24 05:30:35;;;;;;;23.77;15.10;;;-0.20;99.90;;;;;;5117609;27;20219;-68
2021/03/24 05:33:06;;;;;;;23.38;12.82;;;-0.10;99.90;;;;;;5117176;28;20647;-68
2021/03/24 05:35:44;;;;;;;22.45;13.68;;;-0.10;99.90;;;;;;5117531;28;20265;-68
2021/03/24 05:38:22;;;;;;;27.23;13.93;;;-0.10;99.90;;;;;;5116046;28;20668;-68
2021/03/24 05:41:04;;;;;;;22.02;13.60;;;-0.20;99.90;;;;;;5117177;28;20183;-68
2021/03/24 05:44:09;;;;;;;22.73;14.18;;;-0.20;99.90;;;;;;5117046;28;20187;-68
2021/03/24 05:46:54;;;;;;;20.80;10.82;;;-0.10;99.90;;;;;;5114609;28;20226;-68
2021/03/24 05:49:38;;;;;;;21.65;13.00;;;-0.10;99.90;;;;;;5116611;28;20190;-69
2021/03/24 05:52:15;;;;;;;19.92;13.65;;;0.00;99.90;;;;;;5117290;28;20203;-68
2021/03/24 05:55:01;;;;;;;19.67;12.43;;;0.00;99.90;;;;;;5116974;28;20186;-68
2021/03/24 05:57:54;;;;;;;18.75;13.02;;;0.10;99.90;;;;;;5105793;28;20232;-68
2021/03/24 06:00:27;;;;;;;27.75;13.70;;;0.10;99.90;;;;;;5116861;27;20544;-68
2021/03/24 06:03:03;;;;;;;23.38;13.63;;;0.20;99.90;;;;;;5115560;28;20206;-68
2021/03/24 06:05:38;;;;;;;24.38;15.30;;;0.30;99.90;;;;;;5117677;27;20198;-68
2021/03/24 06:08:17;;;;;;;23.58;13.30;;;0.40;99.90;;;;;;5117140;28;20171;-68
2021/03/24 06:10:44;;;;;;;21.45;13.05;;;0.40;99.90;;;;;;5116479;27;20206;-68
2021/03/24 06:13:22;;;;;;;21.38;13.93;;;0.40;99.90;;;;;;5117132;28;20183;-68
2021/03/24 06:16:04;;;;;;;19.63;12.40;;;0.50;99.90;;;;;;5117211;27;20175;-68
2021/03/24 06:18:57;;;;;;;17.58;11.88;;;0.60;99.90;;;;;;5117943;27;20562;-68
2021/03/24 06:21:45;;;;;;;23.58;12.65;;;0.50;99.90;;;;;;5117379;28;20175;-68
2021/03/24 06:24:20;;;;;;;21.40;13.35;;;0.60;99.90;;;;;;5116600;28;20179;-68
2021/03/24 06:26:57;;;;;;;20.42;12.50;;;0.70;99.90;;;;;;5116661;28;20218;-67
2021/03/24 06:30:01;;;;;;;36.25;15.90;;;0.80;99.90;;;;;;5116543;28;20636;-70
2021/03/24 06:32:40;;;;;;;28.05;14.40;;;0.90;99.90;;;;;;5116053;28;20595;-68
2021/03/24 06:35:43;;;;;;;19.48;12.40;;;1.00;99.90;;;;;;5116592;28;20194;-67
2021/03/24 06:38:40;;;;;;;24.08;14.20;;;1.00;99.90;;;;;;5116676;28;20225;-68
2021/03/24 06:41:06;;;;;;;29.95;15.23;;;1.10;99.90;;;;;;5116348;28;20625;-68
2021/03/24 06:44:00;;;;;;;28.75;14.00;;;1.30;99.90;;;;;;5115876;28;20194;-67
2021/03/24 06:46:42;;;;;;;34.70;13.90;;;1.50;99.90;;;;;;5114854;28;20268;-68
2021/03/24 06:49:46;;;;;;;22.75;12.90;;;1.60;99.90;;;;;;5115601;28;20190;-67
2021/03/24 06:52:41;;;;;;;20.80;14.45;;;1.70;99.90;;;;;;5115811;28;20170;-67
2021/03/24 06:55:49;;;;;;;26.83;13.40;;;1.90;99.90;;;;;;5115706;28;20300;-67
2021/03/24 06:58:41;;;;;;;23.40;15.35;;;2.00;99.90;;;;;;5115983;28;20194;-70
2021/03/24 07:01:32;;;;;;;19.98;13.45;;;2.10;99.90;;;;;;5115499;28;20512;-69
2021/03/24 07:04:45;;;;;;;19.40;13.75;;;2.20;99.90;;;;;;5115425;28;20178;-69
2021/03/24 07:07:39;;;;;;;26.02;13.30;;;2.40;99.90;;;;;;5082795;28;20241;-69
2021/03/24 07:10:37;;;;;;;19.02;12.35;;;2.50;99.90;;;;;;5115858;28;20186;-68
2021/03/24 07:13:13;;;;;;;19.10;13.00;;;2.60;99.90;;;;;;5100492;28;20199;-68
2021/03/24 07:15:51;;;;;;;20.17;11.75;;;2.80;99.90;;;;;;5115853;27;20314;-69
2021/03/24 07:19:02;;;;;;;17.65;12.77;;;2.90;99.90;;;;;;5116102;28;20178;-69
2021/03/24 07:21:43;;;;;;;18.20;11.90;;;3.00;99.90;;;;;;5115195;28;20277;-68
2021/03/24 07:24:32;;;;;;;20.73;12.27;;;3.10;99.90;;;;;;5115278;28;20194;-70
2021/03/24 07:27:01;;;;;;;20.42;13.27;;;3.20;99.90;;;;;;5113885;28;20233;-68
2021/03/24 07:29:52;;;;;;;19.70;12.05;;;3.40;99.90;;;;;;5115223;28;20192;-69
2021/03/24 07:32:46;;;;;;;20.77;12.75;;;3.50;99.90;;;;;;5115277;28;20187;-68
2021/03/24 07:35:25;;;;;;;17.00;11.85;;;3.60;99.90;;;;;;5114901;28;20211;-69
2021/03/24 07:38:15;;;;;;;15.93;11.48;;;3.60;99.90;;;;;;5115589;28;20278;-69
2021/03/24 07:40:59;;;;;;;16.75;12.75;;;3.40;99.90;;;;;;5096087;28;20214;-68
2021/03/24 07:43:56;;;;;;;17.17;13.25;;;3.60;99.90;;;;;;5115516;27;20230;-68
2021/03/24 07:46:40;;;;;;;26.15;17.15;;;3.90;99.90;;;;;;5114840;28;20225;-69
2021/03/24 07:49:30;;;;;;;26.23;19.05;;;3.60;99.90;;;;;;5114804;28;20206;-68
2021/03/24 07:52:26;;;;;;;25.23;17.88;;;3.60;99.90;;;;;;5114819;28;20201;-68
2021/03/24 07:55:13;;;;;;;29.10;19.05;;;3.60;99.90;;;;;;5115153;28;20187;-68
2021/03/24 07:58:00;;;;;;;22.98;17.30;;;3.60;99.90;;;;;;5115258;28;20217;-68
2021/03/24 08:00:54;;;;;;;24.50;17.23;;;4.00;99.90;;;;;;5093233;28;20742;-69
2021/03/24 08:03:51;;;;;;;26.23;16.80;;;4.10;99.90;;;;;;5114412;28;20210;-69
2021/03/24 08:06:38;;;;;;;26.50;17.65;;;4.50;99.90;;;;;;5115065;28;20313;-69
2021/03/24 08:09:19;;;;;;;24.90;18.25;;;4.50;99.90;;;;;;5114848;28;20201;-69
2021/03/24 08:11:53;;;;;;;26.95;19.35;;;4.60;99.90;;;;;;5113700;28;20228;-69
2021/03/24 08:14:43;;;;;;;24.58;17.60;;;4.70;99.90;;;;;;5113725;28;20540;-69
2021/03/24 08:17:30;;;;;;;28.98;19.20;;;4.90;99.90;;;;;;5114767;28;20611;-69
2021/03/24 08:20:11;;;;;;;23.50;17.63;;;5.20;99.90;;;;;;5114541;28;20190;-68
2021/03/24 08:23:27;;;;;;;26.77;16.80;;;5.40;99.90;;;;;;5114360;28;20202;-68
2021/03/24 08:26:22;;;;;;;27.85;18.63;;;5.40;99.90;;;;;;5067925;28;20208;-69
2021/03/24 08:28:54;;;;;;;25.95;18.40;;;5.60;99.90;;;;;;5095987;28;20281;-69
2021/03/24 08:31:27;;;;;;;27.92;18.70;;;5.70;99.90;;;;;;5114625;28;20226;-69
2021/03/24 08:34:03;;;;;;;28.80;19.88;;;6.00;99.90;;;;;;5114275;28;20211;-69
2021/03/24 08:37:09;;;;;;;26.63;19.55;;;5.90;99.90;;;;;;5114228;28;20181;-69
2021/03/24 08:40:00;;;;;;;27.42;19.63;;;5.80;99.90;;;;;;5114396;28;20198;-69
2021/03/24 08:42:36;;;;;;;29.02;20.58;;;5.90;99.90;;;;;;5114378;28;20190;-70
2021/03/24 08:45:12;;;;;;;26.48;19.17;;;6.20;99.90;;;;;;5114328;28;20163;-68
2021/03/24 08:47:42;;;;;;;28.83;19.20;;;6.60;99.90;;;;;;5114285;28;20198;-68
2021/03/24 08:50:20;;;;;;;26.08;18.88;;;7.00;99.90;;;;;;5114812;28;20222;-68
2021/03/24 08:53:07;;;;;;;26.48;18.63;;;6.90;99.90;;;;;;5113903;28;20207;-68
2021/03/24 08:55:47;;;;;;;26.98;19.77;;;7.00;99.90;;;;;;5114338;28;20186;-70
2021/03/24 08:58:25;;;;;;;28.70;19.95;;;7.20;99.90;;;;;;5114210;28;20281;-69
2021/03/24 09:01:15;;;;;;;27.48;18.73;;;7.40;99.90;;;;;;5112538;28;20285;-69
2021/03/24 09:04:14;;;;;;;27.35;18.45;;;7.50;99.90;;;;;;5114335;28;20265;-68
2021/03/24 09:07:00;;;;;;;24.67;18.58;;;7.80;99.90;;;;;;5114512;28;20241;-68
2021/03/24 09:09:53;;;;;;;24.27;16.27;;;7.80;99.90;;;;;;5113751;28;20199;-68
2021/03/24 09:12:26;;;;;;;22.55;16.70;;;7.90;99.90;;;;;;5110618;28;20199;-68
2021/03/24 09:15:20;;;;;;;24.73;16.80;;;8.00;99.90;;;;;;5114302;28;20217;-68
2021/03/24 09:18:09;;;;;;;26.40;17.00;;;8.10;99.90;;;;;;5113734;28;20205;-69
2021/03/24 09:20:41;;;;;;;26.70;17.55;;;8.20;99.90;;;;;;5114428;28;20270;-68
2021/03/24 09:23:50;;;;;;;22.58;16.92;;;8.20;99.90;;;;;;5116009;28;20194;-68
2021/03/24 09:26:36;;;;;;;21.20;16.13;;;8.00;99.90;;;;;;5112036;28;20218;-68
2021/03/24 09:29:45;;;;;;;23.95;17.50;;;7.90;99.90;;;;;;5117464;28;20191;-68
2021/03/24 09:32:24;;;;;;;24.52;17.55;;;8.00;99.90;;;;;;5111947;28;20203;-69
2021/03/24 09:35:20;;;;;;;19.52;15.73;;;8.50;99.90;;;;;;5117648;28;20174;-69
2021/03/24 09:37:57;;;;;;;20.95;14.90;;;8.80;99.90;;;;;;5116635;28;20209;-68
2021/03/24 09:40:37;;;;;;;21.20;15.38;;;8.60;99.90;;;;;;5117472;28;20206;-68
2021/03/24 09:43:15;;;;;;;17.55;13.75;;;8.40;99.90;;;;;;5116951;28;20317;-69
2021/03/24 09:45:43;;;;;;;22.63;14.77;;;8.70;99.90;;;;;;5117423;28;20270;-68
2021/03/24 09:48:17;;;;;;;27.48;15.30;;;8.40;99.90;;;;;;5117199;28;20198;-69
2021/03/24 09:51:01;;;;;;;16.65;13.60;;;8.80;99.90;;;;;;5116713;28;20219;-69
2021/03/24 09:53:31;;;;;;;26.25;15.88;;;8.70;99.90;;;;;;5116790;28;20190;-69
2021/03/24 09:56:06;;;;;;;16.23;12.65;;;9.00;99.90;;;;;;5115878;27;20225;-68
2021/03/24 09:58:44;;;;;;;18.88;13.63;;;9.30;99.90;;;;;;5115629;28;20570;-69
2021/03/24 10:01:41;;;;;;;18.98;14.68;;;9.40;99.90;;;;;;5117039;28;20185;-68
2021/03/24 10:04:11;;;;;;;21.08;15.02;;;9.50;99.90;;;;;;5117021;28;20181;-68
2021/03/24 10:07:04;;;;;;;17.20;13.18;;;9.70;99.90;;;;;;5116704;28;20199;-68
2021/03/24 10:09:43;;;;;;;17.08;13.77;;;9.70;99.90;;;;;;5116667;28;20186;-68
2021/03/24 10:12:43;;;;;;;21.83;13.05;;;9.80;99.90;;;;;;5116729;28;20171;-68
2021/03/24 10:15:17;;;;;;;17.98;13.60;;;10.10;99.90;;;;;;5114946;28;20202;-68
2021/03/24 10:18:10;;;;;;;28.58;19.50;;;10.30;99.90;;;;;;5116423;27;20206;-68
2021/03/24 10:21:06;;;;;;;17.30;13.27;;;10.40;99.90;;;;;;5116193;28;20194;-69
2021/03/24 10:23:45;;;;;;;18.52;13.15;;;10.70;99.90;;;;;;5110544;28;20688;-69
2021/03/24 10:26:30;;;;;;;20.02;14.30;;;11.20;99.90;;;;;;5116365;27;20672;-69
2021/03/24 10:29:10;;;;;;;20.25;15.55;;;10.70;99.90;;;;;;5116308;28;20178;-69
2021/03/24 10:31:40;;;;;;;20.77;12.90;;;10.70;99.90;;;;;;5115652;28;20226;-69
2021/03/24 10:34:27;;;;;;;16.80;11.60;;;10.90;99.90;;;;;;5115691;28;20641;-68
2021/03/24 10:37:06;;;;;;;19.67;13.63;;;11.30;99.90;;;;;;5115783;28;20673;-69
2021/03/24 10:40:02;;;;;;;16.15;12.75;;;11.70;99.90;;;;;;5115738;28;20593;-68
2021/03/24 10:42:35;;;;;;;15.85;11.32;;;11.30;99.90;;;;;;5115631;28;20187;-69
2021/03/24 10:45:29;;;;;;;17.35;12.82;;;11.50;99.90;;;;;;5115547;28;20178;-69
2021/03/24 10:48:08;;;;;;;18.80;11.75;;;11.90;99.90;;;;;;5115638;28;20210;-69
2021/03/24 10:51:00;;;;;;;13.90;11.77;;;11.80;99.90;;;;;;5114340;28;20715;-67
2021/03/24 10:53:31;;;;;;;15.68;11.57;;;11.80;99.90;;;;;;5115601;28;20178;-69
2021/03/24 10:56:18;;;;;;;14.77;10.68;;;12.20;99.90;;;;;;5115483;27;20273;-67
2021/03/24 10:58:50;;;;;;;16.02;10.60;;;12.00;99.90;;;;;;5116163;28;20183;-67
2021/03/24 11:01:41;;;;;;;22.15;11.75;;;12.50;99.90;;;;;;5116249;28;20202;-68
2021/03/24 11:04:38;;;;;;;22.58;12.60;;;12.30;99.90;;;;;;5115375;28;20198;-68
2021/03/24 11:07:20;;;;;;;13.38;10.88;;;12.30;99.90;;;;;;5115211;28;20285;-68
2021/03/24 11:09:59;;;;;;;18.52;10.85;;;12.80;99.90;;;;;;5116320;28;20179;-67
2021/03/24 11:13:04;;;;;;;16.77;11.80;;;13.10;99.90;;;;;;5116433;28;20289;-67
2021/03/24 11:15:40;;;;;;;15.40;12.50;;;13.00;99.90;;;;;;5093883;28;20217;-67
2021/03/24 11:18:10;;;;;;;14.97;12.13;;;;;;;;;;5115357;28;21107;-67
2021/03/24 11:20:54;;;;;;;17.03;11.73;;;15.00;99.90;;;;;;5115005;28;20556;-67
2021/03/24 11:23:30;;;;;;;18.80;12.77;;;14.70;99.90;;;;;;5115674;28;20577;-68
2021/03/24 11:26:02;;;;;;;14.97;11.07;;;14.00;99.90;;;;;;5114211;28;20619;-68
2021/03/24 11:28:38;;;;;;;12.53;10.13;;;14.20;99.90;;;;;;5115333;28;20685;-67
2021/03/24 11:31:13;;;;;;;19.27;12.50;;;14.50;99.90;;;;;;5114913;28;20640;-67
2021/03/24 11:33:47;;;;;;;17.67;14.07;;;15.00;99.90;;;;;;5115101;28;20613;-68
2021/03/24 11:36:16;;;;;;;12.60;10.90;;;15.10;99.90;;;;;;5114959;28;21142;-68
2021/03/24 11:39:03;;;;;;;16.93;12.23;;;14.90;99.90;;;;;;5113624;28;21105;-67
2021/03/24 11:41:43;;;;;;;13.90;11.57;;;14.90;99.90;;;;;;5115321;28;20599;-69
2021/03/24 11:44:21;;;;;;;19.10;12.63;;;15.30;99.90;;;;;;5114521;28;20626;-67
2021/03/24 11:46:48;;;;;;;13.53;12.10;;;;;;;;;;5114393;28;20619;-68
2021/03/24 11:49:34;;;;;;;15.00;12.13;;;;;;;;;;5113368;28;20620;-67
2021/03/24 11:52:01;;;;;;;15.00;11.90;;;;;;;;;;5114895;28;20615;-68
2021/03/24 11:54:49;;;;;;;18.63;13.90;;;;;;;;;;5116943;28;20631;-68
2021/03/24 11:57:18;;;;;;;14.27;12.17;;;;;;;;;;5104669;28;20639;-67
2021/03/24 11:59:52;;;;;;;13.10;11.73;;;;;;;;;;5113933;28;20588;-69
2021/03/24 12:02:33;;;;;;;16.23;11.53;;;;;;;;;;5095923;28;20628;-69
2021/03/24 12:05:11;;;;;;;14.47;12.30;;;;;;;;;;5113923;28;20583;-68
2021/03/24 12:08:02;;;;;;;14.37;12.73;;;;;;;;;;5114000;28;20670;-69
2021/03/24 12:10:31;;;;;;;13.50;11.77;;;;;;;;;;5115082;28;20639;-68
2021/03/24 12:13:02;;;;;;;13.27;11.20;;;;;;;;;;5113712;28;20716;-69
2021/03/24 12:15:42;;;;;;;13.47;12.07;;;;;;;;;;5113609;28;20588;-68
2021/03/24 12:18:11;;;;;;;15.70;11.87;;;;;;;;;;5099967;28;21162;-68
2021/03/24 12:20:56;;;;;;;13.23;10.83;;;;;;;;;;5114388;28;20600;-69
2021/03/24 12:23:25;;;;;;;15.57;12.23;;;;;;;;;;5113238;28;21167;-68
2021/03/24 12:25:57;;;;;;;17.77;11.37;;;;;;;;;;5114653;28;20566;-69
2021/03/24 12:28:34;;;;;;;15.53;11.80;;;;;;;;;;5114078;28;20636;-67
2021/03/24 12:31:11;;;;;;;13.90;11.23;;;;;;;;;;5114015;28;20640;-68
2021/03/24 12:33:47;;;;;;;13.67;11.30;;;;;;;;;;5114896;28;20608;-67
2021/03/24 12:36:19;;;;;;;13.50;11.43;;;;;;;;;;5114391;28;20556;-67
2021/03/24 12:38:48;;;;;;;13.17;11.80;;;;;;;;;;5114180;28;20624;-68
2021/03/24 12:41:24;;;;;;;14.00;11.43;;;;;;;;;;5114062;28;20615;-68
2021/03/24 12:44:05;;;;;;;17.87;11.87;;;;;;;;;;5114102;28;20588;-68
2021/03/24 12:46:32;;;;;;;16.67;11.60;;;;;;;;;;5114086;28;20552;-68
2021/03/24 12:48:59;;;;;;;14.23;11.30;;;;;;;;;;5114266;28;20753;-68
2021/03/24 12:51:45;;;;;;;11.43;9.57;;;;;;;;;;5114232;28;20744;-68
2021/03/24 12:54:14;;;;;;;13.13;11.73;;;;;;;;;;5113889;28;20715;-66
2021/03/24 12:56:44;;;;;;;13.33;10.90;;;;;;;;;;5115661;28;20605;-67
2021/03/24 12:59:32;;;;;;;14.80;11.07;;;17.10;99.90;;;;;;5118417;28;20623;-67
2021/03/24 13:02:09;;;;;;;14.80;10.70;;;17.10;99.90;;;;;;5118539;28;20601;-69
2021/03/24 13:04:54;;;;;;;13.27;10.47;;;17.40;99.90;;;;;;5117677;28;20578;-69
2021/03/24 13:07:29;;;;;;;13.27;10.97;;;18.00;99.90;;;;;;5117385;28;20659;-68
2021/03/24 13:10:10;;;;;;;15.40;10.40;;;17.70;99.90;;;;;;5117444;27;20576;-66
2021/03/24 13:13:12;;;;;;;14.10;11.03;;;17.70;99.90;;;;;;5117617;28;20984;-67
2021/03/24 13:15:48;;;;;;;14.60;11.37;;;17.60;99.90;;;;;;5095686;28;21212;-68
2021/03/24 13:18:40;;;;;;;11.87;10.67;;;19.00;99.90;;;;;;5118473;27;20623;-67
2021/03/24 13:21:23;;;;;;;12.17;9.20;;;19.10;99.90;;;;;;5117612;28;20616;-68
2021/03/24 13:24:29;;;;;;;11.17;9.67;;;19.40;99.90;;;;;;5118216;28;20711;-67
2021/03/24 13:27:18;;;;;;;12.67;10.27;;;18.70;99.90;;;;;;5116962;28;20618;-68
2021/03/24 13:29:56;;;;;;;13.40;10.40;;;20.50;99.90;;;;;;5117342;28;20555;-68
2021/03/24 13:32:47;;;;;;;11.13;10.03;;;19.40;99.90;;;;;;5117803;28;20551;-69
2021/03/24 13:35:28;;;;;;;16.00;10.37;;;19.40;99.90;;;;;;5117476;27;21232;-68
2021/03/24 13:37:56;;;;;;;12.97;9.70;;;19.60;99.90;;;;;;5117451;28;20576;-67
2021/03/24 13:40:29;;;;;;;11.80;9.90;;;19.20;99.90;;;;;;5117260;28;21146;-68
2021/03/24 13:43:08;;;;;;;10.43;9.37;;;18.80;99.90;;;;;;5116837;28;20667;-68